Orion Explorer — LNDT — position and weather

sailwx.info

Track history (hours):
 
Tides and Currents Weather Stations Pressure Air Temp Water Temp Dewpoint Dewpoint Depression Visibility Wind Speed Wind Dir Waves Ship Positions

Orion Explorer

Last reported at 2017-Apr-29 03:30 UTC. Time now 2017-Apr-29 03:30 UTC.
Position N 71°10' E 027°38'.

Length 59 m; draft 4.5 m.

Type: Cargo ship. MMSI: 259496000.

Date/timePositionNaut miles runAvg speedWind from/ knotsBaromVisibWave heightAir tempDewpointWater temp
2017-Apr-29 03:30N 71°10' E 027°38'612.0
2017-Apr-29 03:00N 71°08' E 027°21'611.3
2017-Apr-29 02:30N 71°06' E 027°05'611.3
2017-Apr-29 02:00N 71°03' E 026°49'611.4
2017-Apr-29 01:30N 71°01' E 026°33'611.1
2017-Apr-29 01:00N 70°59' E 026°17'511.0
2017-Apr-29 00:30N 70°57' E 026°01'611.2
2017-Apr-29 00:00N 70°56' E 025°44'510.8
2017-Apr-28 23:30N 70°57' E 025°28'611.1
2017-Apr-28 23:00N 70°59' E 025°12'510.8
2017-Apr-28 22:30N 70°60' E 024°56'510.3
2017-Apr-28 22:00N 71°01' E 024°41'5 9.2
2017-Apr-28 21:29N 70°60' E 024°27'510.2
2017-Apr-28 21:00N 70°57' E 024°15'5 9.3
2017-Apr-28 20:30N 70°53' E 024°05'510.4
2017-Apr-28 20:00N 70°50' E 023°54'510.8
2017-Apr-28 19:30N 70°46' E 023°42'510.4
2017-Apr-28 19:00N 70°41' E 023°34'4 8.6
2017-Apr-28 18:30N 70°37' E 023°38'1 1.3
2017-Apr-28 18:00N 70°38' E 023°39'0 0.0
2017-Apr-28 17:30N 70°38' E 023°39'0 0.6
2017-Apr-28 17:00N 70°38' E 023°39'5 9.6
2017-Apr-28 16:30N 70°38' E 023°24'611.5
2017-Apr-28 16:00N 70°35' E 023°10'612.0
2017-Apr-28 15:30N 70°31' E 022°57'611.7
2017-Apr-28 15:00N 70°29' E 022°40'1111.3
2017-Apr-28 14:00N 70°27' E 022°07'611.6
2017-Apr-28 13:30N 70°25' E 021°51'611.5
2017-Apr-28 13:00N 70°22' E 021°36'611.9
2017-Apr-28 12:30N 70°18' E 021°24'611.4
2017-Apr-28 11:59N 70°14' E 021°10'510.3
2017-Apr-28 11:30N 70°09' E 021°16'510.8
2017-Apr-28 11:00N 70°06' E 021°27'810.7
2017-Apr-28 10:15N 70°01' E 021°46'310.8
2017-Apr-28 09:56N 69°58' E 021°52'1 0.6
2017-Apr-28 08:59N 69°57' E 021°53'3 6.4
2017-Apr-28 08:30N 69°54' E 021°53'0 0.0
2017-Apr-28 07:58N 69°54' E 021°53'0 0.0
2017-Apr-28 07:26N 69°54' E 021°53'3 2.3
2017-Apr-28 06:12N 69°52' E 021°50'0 0.5
2017-Apr-28 05:44N 69°52' E 021°51'0 0.2
2017-Apr-28 03:46N 69°51' E 021°51'0 0.3
2017-Apr-28 02:10N 69°51' E 021°50'1 4.9
2017-Apr-28 01:59N 69°52' E 021°52'0 0.3
2017-Apr-28 01:11N 69°52' E 021°52'0 0.2
2017-Apr-28 01:00N 69°52' E 021°52'3 6.2
2017-Apr-28 00:30N 69°54' E 021°45'4 7.4
2017-Apr-27 23:58N 69°56' E 021°36'4 7.6
2017-Apr-27 23:30N 69°59' E 021°32'4 7.6
2017-Apr-27 23:00N 70°02' E 021°24'2 4.9
2017-Apr-27 22:30N 70°03' E 021°17'0 0.0
2017-Apr-27 22:00N 70°03' E 021°17'0 0.0
2017-Apr-27 21:30N 70°03' E 021°17'4 8.0
2017-Apr-27 21:00N 69°60' E 021°08'4 7.9
2017-Apr-27 20:30N 69°58' E 020°58'0 0.0
2017-Apr-27 20:00N 69°58' E 020°58'1 2.1
2017-Apr-27 19:30N 69°57' E 020°57'5 9.8
2017-Apr-27 19:00N 69°54' E 020°47'0 0.4
2017-Apr-27 18:30N 69°53' E 020°46'0 0.0
2017-Apr-27 18:00N 69°53' E 020°46'3 6.0
2017-Apr-27 17:29N 69°56' E 020°41'510.2
2017-Apr-27 16:59N 69°57' E 020°27'510.0
2017-Apr-27 16:30N 69°59' E 020°13'510.5
2017-Apr-27 16:00N 69°55' E 020°01'510.5
2017-Apr-27 15:30N 69°52' E 019°49'510.3
2017-Apr-27 15:00N 69°50' E 019°36'10 9.4
2017-Apr-27 14:00N 69°47' E 019°10'0 0.0
2017-Apr-27 13:30N 69°47' E 019°10'4 7.1
2017-Apr-27 13:00N 69°44' E 019°05'2 4.5
2017-Apr-27 12:30N 69°42' E 019°04'0 0.0
2017-Apr-27 11:59N 69°42' E 019°04'2 4.3
2017-Apr-27 11:30N 69°40' E 019°00'5 9.3
2017-Apr-27 10:59N 69°36' E 018°53'611.2
2017-Apr-27 10:30N 69°33' E 018°40'511.0
2017-Apr-27 10:00N 69°31' E 018°26'510.6
2017-Apr-27 09:30N 69°29' E 018°12'5 9.3
2017-Apr-27 09:00N 69°25' E 018°07'5 9.3
2017-Apr-27 08:30N 69°20' E 018°03'5 9.3
2017-Apr-27 08:00N 69°16' E 017°58'5 9.6
2017-Apr-27 07:30N 69°11' E 018°00'510.2
2017-Apr-27 07:00N 69°09' E 017°48'510.3
2017-Apr-27 06:30N 69°07' E 017°35'510.0
2017-Apr-27 06:00N 69°04' E 017°22'510.1
2017-Apr-27 05:30N 68°60' E 017°14'510.2
2017-Apr-27 05:00N 68°58' E 017°01'510.2
2017-Apr-27 04:30N 68°57' E 016°47'2 3.9
2017-Apr-27 04:00N 68°56' E 016°43'0 0.0
2017-Apr-27 03:30N 68°56' E 016°43'4 7.5
2017-Apr-27 03:00N 68°53' E 016°37'5 9.1
2017-Apr-27 02:30N 68°53' E 016°24'510.1
2017-Apr-27 02:00N 68°56' E 016°13'510.2
2017-Apr-27 01:29N 68°58' E 015°60'510.2
2017-Apr-27 01:00N 68°59' E 015°46'4 8.7
2017-Apr-27 00:30N 68°56' E 015°36'510.1
2017-Apr-27 00:00N 68°52' E 015°30'510.4
2017-Apr-26 23:30N 68°47' E 015°26'510.7
2017-Apr-26 23:00N 68°41' E 015°26'4 7.3
2017-Apr-26 22:29N 68°38' E 015°29'3 5.4
2017-Apr-26 22:00N 68°37' E 015°22'510.4
2017-Apr-26 21:29N 68°35' E 015°08'4 8.7
2017-Apr-26 21:00N 68°35' E 014°57'0 0.2
2017-Apr-26 20:30N 68°34' E 014°57'0 0.0
2017-Apr-26 20:00N 68°34' E 014°57'0 0.0
2017-Apr-26 19:29N 68°34' E 014°57'0 0.0
2017-Apr-26 19:00N 68°34' E 014°57'0 0.0
2017-Apr-26 18:30N 68°34' E 014°57'0 0.0
2017-Apr-26 18:00N 68°34' E 014°57'0 0.0
2017-Apr-26 17:29N 68°34' E 014°57'0 0.0
2017-Apr-26 17:00N 68°34' E 014°57'0 0.0
2017-Apr-26 16:30N 68°34' E 014°57'0 0.0
2017-Apr-26 16:00N 68°34' E 014°57'0 0.0
2017-Apr-26 15:30N 68°34' E 014°57'0 0.0
2017-Apr-26 15:00N 68°34' E 014°57'0 0.0
2017-Apr-26 14:29N 68°34' E 014°57'0 0.0
2017-Apr-26 13:30N 68°34' E 014°57'0 0.0
2017-Apr-26 13:00N 68°34' E 014°57'0 0.0
2017-Apr-26 12:30N 68°34' E 014°57'0 0.0
2017-Apr-26 12:00N 68°34' E 014°57'0 0.0
2017-Apr-26 11:30N 68°34' E 014°57'0 0.0
2017-Apr-26 11:00N 68°34' E 014°57'0 0.0
2017-Apr-26 10:30N 68°34' E 014°57'0 0.0
2017-Apr-26 10:00N 68°34' E 014°57'0 0.0
2017-Apr-26 09:30N 68°34' E 014°57'0 0.0
2017-Apr-26 09:00N 68°34' E 014°57'0 0.0
2017-Apr-26 08:30N 68°34' E 014°57'0 0.0
2017-Apr-26 08:00N 68°34' E 014°57'0 0.0
2017-Apr-26 07:30N 68°34' E 014°57'2 4.0
2017-Apr-26 07:00N 68°34' E 015°02'611.0
2017-Apr-26 06:30N 68°37' E 015°16'510.8
2017-Apr-26 06:00N 68°41' E 015°26'510.6
2017-Apr-26 05:29N 68°46' E 015°26'510.9
2017-Apr-26 05:00N 68°52' E 015°30'511.2
2017-Apr-26 04:30N 68°57' E 015°36'5 9.9
2017-Apr-26 04:00N 68°59' E 015°48'611.0
2017-Apr-26 03:30N 69°02' E 016°02'511.0
2017-Apr-26 03:00N 69°04' E 016°15'511.0
2017-Apr-26 02:30N 69°07' E 016°29'610.9
2017-Apr-26 02:00N 69°10' E 016°42'511.0
2017-Apr-26 01:30N 69°14' E 016°52'5 9.9
2017-Apr-26 01:00N 69°16' E 017°05'0 0.1
2017-Apr-26 00:29N 69°15' E 017°05'0 0.0
2017-Apr-26 00:00N 69°15' E 017°05'0 0.0
2017-Apr-25 23:30N 69°15' E 017°05'3 5.8
2017-Apr-25 22:59N 69°16' E 016°57'510.5
2017-Apr-25 22:30N 69°21' E 016°50'510.4
2017-Apr-25 22:00N 69°26' E 016°49'510.6
2017-Apr-25 21:30N 69°31' E 016°56'510.7
2017-Apr-25 21:00N 69°34' E 017°08'510.6
2017-Apr-25 20:30N 69°37' E 017°21'510.4
2017-Apr-25 20:00N 69°40' E 017°32'510.6
2017-Apr-25 19:30N 69°43' E 017°44'510.6
2017-Apr-25 19:00N 69°47' E 017°57'510.4
2017-Apr-25 18:30N 69°50' E 018°08'510.4
2017-Apr-25 17:59N 69°53' E 018°22'510.0
2017-Apr-25 17:30N 69°55' E 018°33'510.6
2017-Apr-25 17:00N 69°53' E 018°48'0 0.7
2017-Apr-25 16:30N 69°54' E 018°49'0 0.2
2017-Apr-25 16:00N 69°54' E 018°49'4 8.7
2017-Apr-25 15:29N 69°55' E 018°37'3 6.1
2017-Apr-25 15:00N 69°54' E 018°29'0 0.0
2017-Apr-25 14:30N 69°54' E 018°29'4 4.3
2017-Apr-25 13:30N 69°52' E 018°18'510.3
2017-Apr-25 12:59N 69°49' E 018°06'510.5
2017-Apr-25 12:29N 69°46' E 017°53'510.3
2017-Apr-25 12:00N 69°41' E 017°50'510.7
2017-Apr-25 11:30N 69°36' E 017°54'611.4
2017-Apr-25 11:00N 69°31' E 018°02'510.7
2017-Apr-25 10:30N 69°26' E 018°07'510.3
2017-Apr-25 10:00N 69°21' E 018°05'510.0
2017-Apr-25 09:30N 69°16' E 017°58'510.1
2017-Apr-25 09:00N 69°11' E 018°01'510.4
2017-Apr-25 08:30N 69°09' E 017°49'510.4
2017-Apr-25 08:00N 69°07' E 017°35'510.4
2017-Apr-25 07:30N 69°04' E 017°22'510.5
2017-Apr-25 07:00N 68°60' E 017°14'510.8
2017-Apr-25 06:30N 68°55' E 017°06'510.5
2017-Apr-25 06:00N 68°50' E 017°08'510.5
2017-Apr-25 05:30N 68°45' E 017°10'2 3.8
2017-Apr-25 05:00N 68°43' E 017°09'0 0.0
2017-Apr-25 04:30N 68°43' E 017°09'0 0.0
2017-Apr-25 03:59N 68°43' E 017°09'3 5.4
2017-Apr-25 03:30N 68°42' E 017°03'0 0.0
2017-Apr-25 03:00N 68°42' E 017°03'0 0.2
2017-Apr-25 02:30N 68°42' E 017°03'4 7.2
2017-Apr-25 02:00N 68°43' E 016°54'4 8.5
2017-Apr-25 01:30N 68°46' E 016°45'510.7
2017-Apr-25 01:00N 68°51' E 016°40'5 9.7
2017-Apr-25 00:30N 68°52' E 016°27'1 2.2
2017-Apr-25 00:00N 68°52' E 016°24'0 0.0
2017-Apr-24 23:30N 68°52' E 016°24'0 0.0
2017-Apr-24 23:00N 68°52' E 016°24'1 2.7
2017-Apr-24 22:30N 68°53' E 016°22'2 5.0
2017-Apr-24 22:00N 68°55' E 016°17'0 0.0
2017-Apr-24 21:30N 68°55' E 016°17'0 0.0
2017-Apr-24 21:00N 68°55' E 016°17'2 4.4
2017-Apr-24 20:30N 68°56' E 016°14'510.2
2017-Apr-24 20:00N 68°58' E 016°00'510.1
2017-Apr-24 19:30N 68°59' E 015°46'5 9.2
2017-Apr-24 18:59N 68°56' E 015°36'510.4
2017-Apr-24 18:30N 68°51' E 015°30'510.3
2017-Apr-24 18:00N 68°46' E 015°26'510.2
2017-Apr-24 17:30N 68°41' E 015°26'4 7.0
2017-Apr-24 17:00N 68°38' E 015°29'0 0.0
2017-Apr-24 16:29N 68°38' E 015°29'2 5.1
2017-Apr-24 16:00N 68°37' E 015°23'0 0.7
2017-Apr-24 15:30N 68°37' E 015°23'4 8.9
2017-Apr-24 15:00N 68°35' E 015°12'4 9.0
2017-Apr-24 14:30N 68°30' E 015°12'1 0.9
2017-Apr-24 13:30N 68°30' E 015°14'0 0.1
2017-Apr-24 13:00N 68°30' E 015°14'4 8.4
2017-Apr-24 12:30N 68°32' E 015°06'4 7.6
2017-Apr-24 12:00N 68°35' E 014°57'0 0.3
2017-Apr-24 11:30N 68°34' E 014°57'0 0.0
2017-Apr-24 11:00N 68°34' E 014°57'0 0.0
2017-Apr-24 10:29N 68°34' E 014°57'0 0.0
2017-Apr-24 10:00N 68°34' E 014°57'0 0.0
2017-Apr-24 09:30N 68°34' E 014°57'0 0.0
2017-Apr-24 08:59N 68°34' E 014°57'0 0.0
2017-Apr-24 08:29N 68°34' E 014°57'0 0.0
2017-Apr-24 08:00N 68°34' E 014°57'0 0.0
2017-Apr-24 07:30N 68°34' E 014°57'0 0.0
2017-Apr-24 07:00N 68°34' E 014°57'0 0.0
2017-Apr-24 06:30N 68°34' E 014°57'0 0.0
2017-Apr-24 06:00N 68°34' E 014°57'0 0.0
2017-Apr-24 05:30N 68°34' E 014°57'0 0.0
2017-Apr-24 05:00N 68°34' E 014°57'0 0.0
2017-Apr-24 04:29N 68°34' E 014°57'0 0.0
2017-Apr-24 04:00N 68°34' E 014°57'0 0.0
2017-Apr-24 03:30N 68°34' E 014°57'0 0.0
2017-Apr-24 03:00N 68°34' E 014°57'0 0.0
2017-Apr-24 02:30N 68°34' E 014°57'0 0.0
2017-Apr-24 02:00N 68°34' E 014°57'0 0.0
2017-Apr-24 01:29N 68°34' E 014°57'0 0.0
2017-Apr-24 01:00N 68°34' E 014°57'0 0.0
2017-Apr-24 00:30N 68°34' E 014°57'0 0.0
2017-Apr-23 23:59N 68°34' E 014°57'0 0.0
2017-Apr-23 23:30N 68°34' E 014°57'0 0.0
2017-Apr-23 23:00N 68°34' E 014°57'0 0.0
2017-Apr-23 22:30N 68°34' E 014°57'0 0.0
2017-Apr-23 22:00N 68°34' E 014°57'0 0.0
2017-Apr-23 21:30N 68°34' E 014°57'0 0.0
2017-Apr-23 21:00N 68°34' E 014°57'0 0.0
2017-Apr-23 20:30N 68°34' E 014°57'0 0.0
2017-Apr-23 20:00N 68°34' E 014°57'0 0.0
2017-Apr-23 19:30N 68°34' E 014°57'0 0.0
2017-Apr-23 19:00N 68°34' E 014°57'0 0.0
2017-Apr-23 18:30N 68°34' E 014°57'0 0.0
2017-Apr-23 18:00N 68°34' E 014°57'0 0.0
2017-Apr-23 17:30N 68°34' E 014°57'0 0.0
2017-Apr-23 17:00N 68°34' E 014°57'0 0.0
2017-Apr-23 16:30N 68°34' E 014°57'0 0.0
2017-Apr-23 16:00N 68°34' E 014°57'0 0.0
2017-Apr-23 15:29N 68°34' E 014°57'0 0.0
2017-Apr-23 15:00N 68°34' E 014°57'0 0.0
2017-Apr-23 14:00N 68°34' E 014°57'0 0.0
2017-Apr-23 13:30N 68°34' E 014°57'0 0.0
2017-Apr-23 13:00N 68°34' E 014°57'0 0.0
2017-Apr-23 12:30N 68°34' E 014°57'0 0.0
2017-Apr-23 12:00N 68°34' E 014°57'0 0.0
2017-Apr-23 11:30N 68°34' E 014°57'0 0.0
2017-Apr-23 11:00N 68°34' E 014°57'0 0.0
2017-Apr-23 10:30N 68°34' E 014°57'0 0.0
2017-Apr-23 09:59N 68°34' E 014°57'0 0.0
2017-Apr-23 09:30N 68°34' E 014°57'0 0.0
2017-Apr-23 09:00N 68°34' E 014°57'0 0.0
2017-Apr-23 08:30N 68°34' E 014°57'0 0.0
2017-Apr-23 08:00N 68°34' E 014°57'0 0.0
2017-Apr-23 07:29N 68°34' E 014°57'0 0.0
2017-Apr-23 07:00N 68°34' E 014°57'0 0.0
2017-Apr-23 06:30N 68°34' E 014°57'0 0.0
2017-Apr-23 06:00N 68°34' E 014°57'0 0.0
2017-Apr-23 05:30N 68°34' E 014°57'0 0.0
2017-Apr-23 05:00N 68°34' E 014°57'0 0.0
2017-Apr-23 04:30N 68°34' E 014°57'0 0.0
2017-Apr-23 04:00N 68°34' E 014°57'0 0.0
2017-Apr-23 03:30N 68°34' E 014°57'0 0.0
2017-Apr-23 03:00N 68°34' E 014°57'0 0.0
2017-Apr-23 02:30N 68°34' E 014°57'0 0.0
2017-Apr-23 02:00N 68°34' E 014°57'0 0.0
2017-Apr-23 01:30N 68°34' E 014°57'0 0.0
2017-Apr-23 01:00N 68°34' E 014°57'0 0.0
2017-Apr-23 00:30N 68°34' E 014°57'0 0.0
2017-Apr-23 00:00N 68°34' E 014°57'0 0.0
2017-Apr-22 23:30N 68°34' E 014°57'0 0.0
2017-Apr-22 23:00N 68°34' E 014°57'0 0.0
2017-Apr-22 22:30N 68°34' E 014°57'0 0.0
2017-Apr-22 22:00N 68°34' E 014°57'0 0.0
2017-Apr-22 21:30N 68°34' E 014°57'0 0.0
2017-Apr-22 21:00N 68°34' E 014°57'0 0.0
2017-Apr-22 20:30N 68°34' E 014°57'0 0.0
2017-Apr-22 20:00N 68°34' E 014°57'0 0.0
2017-Apr-22 19:30N 68°34' E 014°57'0 0.0
2017-Apr-22 19:00N 68°34' E 014°57'3 6.4
2017-Apr-22 18:30N 68°35' E 015°06'510.8
2017-Apr-22 18:00N 68°38' E 015°18'510.2
2017-Apr-22 17:30N 68°42' E 015°26'510.6
2017-Apr-22 17:00N 68°47' E 015°25'510.7
2017-Apr-22 16:30N 68°52' E 015°31'510.6
2017-Apr-22 16:00N 68°57' E 015°37'510.0
2017-Apr-22 15:30N 68°59' E 015°50'511.0
2017-Apr-22 15:00N 68°59' E 016°05'510.9
2017-Apr-22 14:30N 68°60' E 016°20'1110.7
2017-Apr-22 13:30N 68°59' E 016°50'611.0
2017-Apr-22 13:00N 68°60' E 017°05'510.0
2017-Apr-22 12:30N 69°02' E 017°18'510.5
2017-Apr-22 12:00N 69°06' E 017°27'510.9
2017-Apr-22 11:30N 69°08' E 017°41'510.9
2017-Apr-22 11:00N 69°10' E 017°55'4 8.3
2017-Apr-22 10:30N 69°14' E 017°58'510.0
2017-Apr-22 10:00N 69°19' E 017°59'5 9.7
2017-Apr-22 09:30N 69°23' E 018°05'510.6
2017-Apr-22 09:00N 69°29' E 018°09'510.8
2017-Apr-22 08:30N 69°31' E 018°23'510.6
2017-Apr-22 08:00N 69°33' E 018°37'5 9.5
2017-Apr-22 07:30N 69°35' E 018°49'510.2
2017-Apr-22 07:00N 69°39' E 018°58'4 7.5
2017-Apr-22 06:30N 69°42' E 019°04'0 0.0
2017-Apr-22 06:00N 69°42' E 019°05'0 0.0
2017-Apr-22 05:30N 69°42' E 019°04'0 0.3
2017-Apr-22 05:00N 69°42' E 019°04'3 5.0
2017-Apr-22 04:30N 69°44' E 019°06'4 7.6
2017-Apr-22 04:00N 69°47' E 019°14'4 7.8
2017-Apr-22 03:30N 69°48' E 019°25'4 8.0
2017-Apr-22 03:00N 69°50' E 019°35'4 7.8
2017-Apr-22 02:30N 69°51' E 019°46'4 8.0
2017-Apr-22 02:00N 69°54' E 019°54'4 7.9
2017-Apr-22 01:30N 69°57' E 020°02'4 7.5
2017-Apr-22 01:00N 69°60' E 020°10'2 4.8
2017-Apr-22 00:30N 70°01' E 020°15'2 5.0
2017-Apr-22 00:00N 70°01' E 020°22'4 7.5
2017-Apr-21 23:30N 70°01' E 020°33'4 8.6
2017-Apr-21 23:00N 70°02' E 020°46'5 9.2
2017-Apr-21 22:30N 70°04' E 020°58'5 9.5
2017-Apr-21 22:00N 70°04' E 021°12'5 9.4
2017-Apr-21 21:30N 70°02' E 021°25'5 9.9
2017-Apr-21 21:00N 69°58' E 021°34'9 3.6
2017-Apr-21 18:32N 69°51' E 021°50'0 6.8
2017-Apr-21 18:30N 69°51' E 021°50'4 4.0
2017-Apr-21 17:36N 69°55' E 021°51'110.6
2017-Apr-21 17:30N 69°56' E 021°50'2 2.2
2017-Apr-21 16:45N 69°57' E 021°53'0 0.0
2017-Apr-21 16:29N 69°57' E 021°53'3 6.6
2017-Apr-21 16:00N 69°58' E 021°44'510.9
2017-Apr-21 15:30N 70°01' E 021°30'5 9.6
2017-Apr-21 14:59N 70°03' E 021°17'0 0.0
2017-Apr-21 14:30N 70°03' E 021°17'9 9.2
2017-Apr-21 13:29N 69°56' E 020°57'5 9.6
2017-Apr-21 13:00N 69°53' E 020°46'0 0.0
2017-Apr-21 12:30N 69°53' E 020°46'3 6.9
2017-Apr-21 12:00N 69°55' E 020°38'1 1.7
2017-Apr-21 11:30N 69°55' E 020°36'0 0.0
2017-Apr-21 11:00N 69°55' E 020°36'0 0.0
2017-Apr-21 10:30N 69°55' E 020°36'0 0.4
2017-Apr-21 10:00N 69°55' E 020°37'510.6
2017-Apr-21 09:30N 69°58' E 020°24'5 9.5
2017-Apr-21 09:00N 69°58' E 020°10'611.0
2017-Apr-21 08:30N 69°54' E 019°57'510.7
2017-Apr-21 08:00N 69°51' E 019°45'510.7
2017-Apr-21 07:30N 69°49' E 019°31'610.9
2017-Apr-21 07:00N 69°47' E 019°15'5 9.5
2017-Apr-21 06:30N 69°48' E 019°02'611.3
2017-Apr-21 06:00N 69°53' E 018°51'1 2.3
2017-Apr-21 05:29N 69°54' E 018°49'0 0.0
2017-Apr-21 05:00N 69°54' E 018°49'0 0.0
2017-Apr-21 04:30N 69°54' E 018°49'1 1.6
2017-Apr-21 04:00N 69°54' E 018°46'4 6.9
2017-Apr-21 03:30N 69°55' E 018°37'3 6.9
2017-Apr-21 03:00N 69°53' E 018°29'5 9.2
2017-Apr-21 02:30N 69°52' E 018°16'510.7
2017-Apr-21 02:00N 69°48' E 018°04'510.8
2017-Apr-21 01:29N 69°45' E 017°51'511.1
2017-Apr-21 01:00N 69°41' E 017°40'611.0
2017-Apr-21 00:30N 69°37' E 017°29'5 9.9
2017-Apr-20 23:59N 69°32' E 017°29'4 7.8
2017-Apr-20 23:30N 69°29' E 017°34'0 0.0
2017-Apr-20 22:57N 69°29' E 017°34'0 0.0
2017-Apr-20 22:30N 69°29' E 017°34'0 0.0
2017-Apr-20 22:00N 69°29' E 017°34'0 0.0
2017-Apr-20 21:30N 69°29' E 017°34'3 6.5
2017-Apr-20 21:00N 69°31' E 017°29'5 9.9
2017-Apr-20 20:30N 69°33' E 017°16'510.0
2017-Apr-20 20:00N 69°32' E 017°02'510.4
2017-Apr-20 19:30N 69°29' E 016°50'611.1
2017-Apr-20 19:00N 69°24' E 016°41'510.2
2017-Apr-20 18:30N 69°20' E 016°34'5 9.9
2017-Apr-20 18:00N 69°15' E 016°26'510.2
2017-Apr-20 17:30N 69°11' E 016°19'510.6
2017-Apr-20 17:00N 69°07' E 016°10'510.6
2017-Apr-20 16:30N 69°03' E 016°00'611.0
2017-Apr-20 16:00N 68°59' E 015°49'5 9.6
2017-Apr-20 15:30N 68°57' E 015°37'5 9.6
2017-Apr-20 15:00N 68°53' E 015°32'510.8
2017-Apr-20 14:30N 68°48' E 015°26'1110.5
2017-Apr-20 13:30N 68°38' E 015°17'510.6
2017-Apr-20 12:59N 68°35' E 015°05'3 5.6
2017-Apr-20 12:30N 68°34' E 014°57'0 0.0
2017-Apr-20 12:00N 68°34' E 014°57'0 0.0
2017-Apr-20 11:30N 68°34' E 014°57'0 0.0
2017-Apr-20 11:00N 68°34' E 014°57'0 0.0
2017-Apr-20 10:30N 68°34' E 014°57'0 0.0
2017-Apr-20 10:00N 68°34' E 014°57'0 0.0
2017-Apr-20 09:30N 68°34' E 014°57'0 0.0
2017-Apr-20 09:00N 68°34' E 014°57'0 0.0
2017-Apr-20 08:30N 68°34' E 014°57'0 0.0
2017-Apr-20 08:00N 68°34' E 014°57'0 0.0
2017-Apr-20 07:30N 68°34' E 014°57'0 0.0
2017-Apr-20 07:00N 68°34' E 014°57'0 0.0
2017-Apr-20 06:30N 68°34' E 014°57'0 0.0
2017-Apr-20 06:00N 68°34' E 014°57'0 0.0
2017-Apr-20 05:30N 68°34' E 014°57'0 0.0
2017-Apr-20 05:00N 68°34' E 014°57'0 0.0
2017-Apr-20 04:30N 68°34' E 014°57'0 0.0
2017-Apr-20 03:59N 68°34' E 014°57'0 0.0
2017-Apr-20 03:30N 68°34' E 014°57'0 0.0
2017-Apr-20 03:00N 68°34' E 014°57'0 0.0
2017-Apr-20 02:30N 68°34' E 014°57'0 0.0
2017-Apr-20 02:00N 68°34' E 014°57'0 0.0
2017-Apr-20 01:30N 68°34' E 014°57'0 0.0
2017-Apr-20 01:00N 68°34' E 014°57'0 0.0
2017-Apr-20 00:30N 68°34' E 014°57'0 0.0
2017-Apr-20 00:00N 68°34' E 014°57'0 0.0
2017-Apr-19 23:30N 68°34' E 014°57'0 0.0
2017-Apr-19 23:00N 68°34' E 014°57'0 0.0
2017-Apr-19 22:30N 68°34' E 014°57'0 0.0
2017-Apr-19 22:00N 68°34' E 014°57'0 0.0
2017-Apr-19 21:30N 68°34' E 014°57'0 0.0
2017-Apr-19 21:01N 68°34' E 014°57'0 0.0
2017-Apr-19 20:30N 68°34' E 014°57'0 0.0
2017-Apr-19 20:00N 68°34' E 014°57'0 0.0
2017-Apr-19 19:30N 68°34' E 014°57'0 0.0
2017-Apr-19 19:00N 68°34' E 014°57'0 0.0
2017-Apr-19 18:30N 68°34' E 014°57'0 0.0
2017-Apr-19 18:00N 68°34' E 014°57'0 0.0
2017-Apr-19 17:30N 68°34' E 014°57'0 0.0
2017-Apr-19 17:00N 68°34' E 014°57'0 0.0
2017-Apr-19 16:29N 68°34' E 014°57'0 0.0
2017-Apr-19 16:00N 68°34' E 014°57'0 0.0
2017-Apr-19 15:29N 68°34' E 014°57'0 0.0
2017-Apr-19 15:00N 68°34' E 014°57'0 0.0
2017-Apr-19 14:30N 68°34' E 014°57'0 0.0
2017-Apr-19 13:30N 68°34' E 014°57'0 0.0
2017-Apr-19 13:00N 68°34' E 014°57'0 0.0
2017-Apr-19 12:30N 68°34' E 014°57'0 0.0
2017-Apr-19 12:00N 68°34' E 014°57'0 0.0
2017-Apr-19 11:30N 68°34' E 014°57'0 0.0
2017-Apr-19 11:00N 68°34' E 014°57'0 0.0
2017-Apr-19 10:30N 68°34' E 014°57'0 0.0
2017-Apr-19 10:00N 68°34' E 014°57'0 0.0
2017-Apr-19 09:30N 68°34' E 014°57'0 0.1
2017-Apr-19 09:00N 68°35' E 014°57'0 0.0
2017-Apr-19 08:30N 68°35' E 014°57'0 0.0
2017-Apr-19 07:59N 68°35' E 014°57'0 0.0
2017-Apr-19 07:30N 68°35' E 014°57'0 0.0
2017-Apr-19 07:00N 68°35' E 014°57'0 0.0
2017-Apr-19 06:30N 68°35' E 014°57'0 0.0
2017-Apr-19 06:00N 68°35' E 014°57'0 0.0
2017-Apr-19 05:31N 68°35' E 014°57'0 0.0
2017-Apr-19 05:00N 68°35' E 014°57'0 0.0
2017-Apr-19 04:30N 68°35' E 014°57'0 0.0
2017-Apr-19 04:00N 68°35' E 014°57'0 0.0
2017-Apr-19 03:30N 68°35' E 014°57'  
Track history (hours):
 
Tides and Currents Weather Stations Pressure Air Temp Water Temp Dewpoint Dewpoint Depression Visibility Wind Speed Wind Dir Waves Ship Positions

Orion Explorer

Last reported at 2017-Apr-29 03:30 UTC. Time now 2017-Apr-29 03:30 UTC.
Position N 71°10' E 027°38'.

Length 59 m; draft 4.5 m.

Type: Cargo ship. MMSI: 259496000.

Date/timePositionNaut miles runAvg speedWind from/ knotsBaromVisibWave heightAir tempDewpointWater temp
2017-Apr-29 03:30N 71°10' E 027°38'612.0
2017-Apr-29 03:00N 71°08' E 027°21'611.3
2017-Apr-29 02:30N 71°06' E 027°05'611.3
2017-Apr-29 02:00N 71°03' E 026°49'611.4
2017-Apr-29 01:30N 71°01' E 026°33'611.1
2017-Apr-29 01:00N 70°59' E 026°17'511.0
2017-Apr-29 00:30N 70°57' E 026°01'611.2
2017-Apr-29 00:00N 70°56' E 025°44'510.8
2017-Apr-28 23:30N 70°57' E 025°28'611.1
2017-Apr-28 23:00N 70°59' E 025°12'510.8
2017-Apr-28 22:30N 70°60' E 024°56'510.3
2017-Apr-28 22:00N 71°01' E 024°41'5 9.2
2017-Apr-28 21:29N 70°60' E 024°27'510.2
2017-Apr-28 21:00N 70°57' E 024°15'5 9.3
2017-Apr-28 20:30N 70°53' E 024°05'510.4
2017-Apr-28 20:00N 70°50' E 023°54'510.8
2017-Apr-28 19:30N 70°46' E 023°42'510.4
2017-Apr-28 19:00N 70°41' E 023°34'4 8.6
2017-Apr-28 18:30N 70°37' E 023°38'1 1.3
2017-Apr-28 18:00N 70°38' E 023°39'0 0.0
2017-Apr-28 17:30N 70°38' E 023°39'0 0.6
2017-Apr-28 17:00N 70°38' E 023°39'5 9.6
2017-Apr-28 16:30N 70°38' E 023°24'611.5
2017-Apr-28 16:00N 70°35' E 023°10'612.0
2017-Apr-28 15:30N 70°31' E 022°57'611.7
2017-Apr-28 15:00N 70°29' E 022°40'1111.3
2017-Apr-28 14:00N 70°27' E 022°07'611.6
2017-Apr-28 13:30N 70°25' E 021°51'611.5
2017-Apr-28 13:00N 70°22' E 021°36'611.9
2017-Apr-28 12:30N 70°18' E 021°24'611.4
2017-Apr-28 11:59N 70°14' E 021°10'510.3
2017-Apr-28 11:30N 70°09' E 021°16'510.8
2017-Apr-28 11:00N 70°06' E 021°27'810.7
2017-Apr-28 10:15N 70°01' E 021°46'310.8
2017-Apr-28 09:56N 69°58' E 021°52'1 0.6
2017-Apr-28 08:59N 69°57' E 021°53'3 6.4
2017-Apr-28 08:30N 69°54' E 021°53'0 0.0
2017-Apr-28 07:58N 69°54' E 021°53'0 0.0
2017-Apr-28 07:26N 69°54' E 021°53'3 2.3
2017-Apr-28 06:12N 69°52' E 021°50'0 0.5
2017-Apr-28 05:44N 69°52' E 021°51'0 0.2
2017-Apr-28 03:46N 69°51' E 021°51'0 0.3
2017-Apr-28 02:10N 69°51' E 021°50'1 4.9
2017-Apr-28 01:59N 69°52' E 021°52'0 0.3
2017-Apr-28 01:11N 69°52' E 021°52'0 0.2
2017-Apr-28 01:00N 69°52' E 021°52'3 6.2
2017-Apr-28 00:30N 69°54' E 021°45'4 7.4
2017-Apr-27 23:58N 69°56' E 021°36'4 7.6
2017-Apr-27 23:30N 69°59' E 021°32'4 7.6
2017-Apr-27 23:00N 70°02' E 021°24'2 4.9
2017-Apr-27 22:30N 70°03' E 021°17'0 0.0
2017-Apr-27 22:00N 70°03' E 021°17'0 0.0
2017-Apr-27 21:30N 70°03' E 021°17'4 8.0
2017-Apr-27 21:00N 69°60' E 021°08'4 7.9
2017-Apr-27 20:30N 69°58' E 020°58'0 0.0
2017-Apr-27 20:00N 69°58' E 020°58'1 2.1
2017-Apr-27 19:30N 69°57' E 020°57'5 9.8
2017-Apr-27 19:00N 69°54' E 020°47'0 0.4
2017-Apr-27 18:30N 69°53' E 020°46'0 0.0
2017-Apr-27 18:00N 69°53' E 020°46'3 6.0
2017-Apr-27 17:29N 69°56' E 020°41'510.2
2017-Apr-27 16:59N 69°57' E 020°27'510.0
2017-Apr-27 16:30N 69°59' E 020°13'510.5
2017-Apr-27 16:00N 69°55' E 020°01'510.5
2017-Apr-27 15:30N 69°52' E 019°49'510.3
2017-Apr-27 15:00N 69°50' E 019°36'10 9.4
2017-Apr-27 14:00N 69°47' E 019°10'0 0.0
2017-Apr-27 13:30N 69°47' E 019°10'4 7.1
2017-Apr-27 13:00N 69°44' E 019°05'2 4.5
2017-Apr-27 12:30N 69°42' E 019°04'0 0.0
2017-Apr-27 11:59N 69°42' E 019°04'2 4.3
2017-Apr-27 11:30N 69°40' E 019°00'5 9.3
2017-Apr-27 10:59N 69°36' E 018°53'611.2
2017-Apr-27 10:30N 69°33' E 018°40'511.0
2017-Apr-27 10:00N 69°31' E 018°26'510.6
2017-Apr-27 09:30N 69°29' E 018°12'5 9.3
2017-Apr-27 09:00N 69°25' E 018°07'5 9.3
2017-Apr-27 08:30N 69°20' E 018°03'5 9.3
2017-Apr-27 08:00N 69°16' E 017°58'5 9.6
2017-Apr-27 07:30N 69°11' E 018°00'510.2
2017-Apr-27 07:00N 69°09' E 017°48'510.3
2017-Apr-27 06:30N 69°07' E 017°35'510.0
2017-Apr-27 06:00N 69°04' E 017°22'510.1
2017-Apr-27 05:30N 68°60' E 017°14'510.2
2017-Apr-27 05:00N 68°58' E 017°01'510.2
2017-Apr-27 04:30N 68°57' E 016°47'2 3.9
2017-Apr-27 04:00N 68°56' E 016°43'0 0.0
2017-Apr-27 03:30N 68°56' E 016°43'4 7.5
2017-Apr-27 03:00N 68°53' E 016°37'5 9.1
2017-Apr-27 02:30N 68°53' E 016°24'510.1
2017-Apr-27 02:00N 68°56' E 016°13'510.2
2017-Apr-27 01:29N 68°58' E 015°60'510.2
2017-Apr-27 01:00N 68°59' E 015°46'4 8.7
2017-Apr-27 00:30N 68°56' E 015°36'510.1
2017-Apr-27 00:00N 68°52' E 015°30'510.4
2017-Apr-26 23:30N 68°47' E 015°26'510.7
2017-Apr-26 23:00N 68°41' E 015°26'4 7.3
2017-Apr-26 22:29N 68°38' E 015°29'3 5.4
2017-Apr-26 22:00N 68°37' E 015°22'510.4
2017-Apr-26 21:29N 68°35' E 015°08'4 8.7
2017-Apr-26 21:00N 68°35' E 014°57'0 0.2
2017-Apr-26 20:30N 68°34' E 014°57'0 0.0
2017-Apr-26 20:00N 68°34' E 014°57'0 0.0
2017-Apr-26 19:29N 68°34' E 014°57'0 0.0
2017-Apr-26 19:00N 68°34' E 014°57'0 0.0
2017-Apr-26 18:30N 68°34' E 014°57'0 0.0
2017-Apr-26 18:00N 68°34' E 014°57'0 0.0
2017-Apr-26 17:29N 68°34' E 014°57'0 0.0
2017-Apr-26 17:00N 68°34' E 014°57'0 0.0
2017-Apr-26 16:30N 68°34' E 014°57'0 0.0
2017-Apr-26 16:00N 68°34' E 014°57'0 0.0
2017-Apr-26 15:30N 68°34' E 014°57'0 0.0
2017-Apr-26 15:00N 68°34' E 014°57'0 0.0
2017-Apr-26 14:29N 68°34' E 014°57'0 0.0
2017-Apr-26 13:30N 68°34' E 014°57'0 0.0
2017-Apr-26 13:00N 68°34' E 014°57'0 0.0
2017-Apr-26 12:30N 68°34' E 014°57'0 0.0
2017-Apr-26 12:00N 68°34' E 014°57'0 0.0
2017-Apr-26 11:30N 68°34' E 014°57'0 0.0
2017-Apr-26 11:00N 68°34' E 014°57'0 0.0
2017-Apr-26 10:30N 68°34' E 014°57'0 0.0
2017-Apr-26 10:00N 68°34' E 014°57'0 0.0
2017-Apr-26 09:30N 68°34' E 014°57'0 0.0
2017-Apr-26 09:00N 68°34' E 014°57'0 0.0
2017-Apr-26 08:30N 68°34' E 014°57'0 0.0
2017-Apr-26 08:00N 68°34' E 014°57'0 0.0
2017-Apr-26 07:30N 68°34' E 014°57'2 4.0
2017-Apr-26 07:00N 68°34' E 015°02'611.0
2017-Apr-26 06:30N 68°37' E 015°16'510.8
2017-Apr-26 06:00N 68°41' E 015°26'510.6
2017-Apr-26 05:29N 68°46' E 015°26'510.9
2017-Apr-26 05:00N 68°52' E 015°30'511.2
2017-Apr-26 04:30N 68°57' E 015°36'5 9.9
2017-Apr-26 04:00N 68°59' E 015°48'611.0
2017-Apr-26 03:30N 69°02' E 016°02'511.0
2017-Apr-26 03:00N 69°04' E 016°15'511.0
2017-Apr-26 02:30N 69°07' E 016°29'610.9
2017-Apr-26 02:00N 69°10' E 016°42'511.0
2017-Apr-26 01:30N 69°14' E 016°52'5 9.9
2017-Apr-26 01:00N 69°16' E 017°05'0 0.1
2017-Apr-26 00:29N 69°15' E 017°05'0 0.0
2017-Apr-26 00:00N 69°15' E 017°05'0 0.0
2017-Apr-25 23:30N 69°15' E 017°05'3 5.8
2017-Apr-25 22:59N 69°16' E 016°57'510.5
2017-Apr-25 22:30N 69°21' E 016°50'510.4
2017-Apr-25 22:00N 69°26' E 016°49'510.6
2017-Apr-25 21:30N 69°31' E 016°56'510.7
2017-Apr-25 21:00N 69°34' E 017°08'510.6
2017-Apr-25 20:30N 69°37' E 017°21'510.4
2017-Apr-25 20:00N 69°40' E 017°32'510.6
2017-Apr-25 19:30N 69°43' E 017°44'510.6
2017-Apr-25 19:00N 69°47' E 017°57'510.4
2017-Apr-25 18:30N 69°50' E 018°08'510.4
2017-Apr-25 17:59N 69°53' E 018°22'510.0
2017-Apr-25 17:30N 69°55' E 018°33'510.6
2017-Apr-25 17:00N 69°53' E 018°48'0 0.7
2017-Apr-25 16:30N 69°54' E 018°49'0 0.2
2017-Apr-25 16:00N 69°54' E 018°49'4 8.7
2017-Apr-25 15:29N 69°55' E 018°37'3 6.1
2017-Apr-25 15:00N 69°54' E 018°29'0 0.0
2017-Apr-25 14:30N 69°54' E 018°29'4 4.3
2017-Apr-25 13:30N 69°52' E 018°18'510.3
2017-Apr-25 12:59N 69°49' E 018°06'510.5
2017-Apr-25 12:29N 69°46' E 017°53'510.3
2017-Apr-25 12:00N 69°41' E 017°50'510.7
2017-Apr-25 11:30N 69°36' E 017°54'611.4
2017-Apr-25 11:00N 69°31' E 018°02'510.7
2017-Apr-25 10:30N 69°26' E 018°07'510.3
2017-Apr-25 10:00N 69°21' E 018°05'510.0
2017-Apr-25 09:30N 69°16' E 017°58'510.1
2017-Apr-25 09:00N 69°11' E 018°01'510.4
2017-Apr-25 08:30N 69°09' E 017°49'510.4
2017-Apr-25 08:00N 69°07' E 017°35'510.4
2017-Apr-25 07:30N 69°04' E 017°22'510.5
2017-Apr-25 07:00N 68°60' E 017°14'510.8
2017-Apr-25 06:30N 68°55' E 017°06'510.5
2017-Apr-25 06:00N 68°50' E 017°08'510.5
2017-Apr-25 05:30N 68°45' E 017°10'2 3.8
2017-Apr-25 05:00N 68°43' E 017°09'0 0.0
2017-Apr-25 04:30N 68°43' E 017°09'0 0.0
2017-Apr-25 03:59N 68°43' E 017°09'3 5.4
2017-Apr-25 03:30N 68°42' E 017°03'0 0.0
2017-Apr-25 03:00N 68°42' E 017°03'0 0.2
2017-Apr-25 02:30N 68°42' E 017°03'4 7.2
2017-Apr-25 02:00N 68°43' E 016°54'4 8.5
2017-Apr-25 01:30N 68°46' E 016°45'510.7
2017-Apr-25 01:00N 68°51' E 016°40'5 9.7
2017-Apr-25 00:30N 68°52' E 016°27'1 2.2
2017-Apr-25 00:00N 68°52' E 016°24'0 0.0
2017-Apr-24 23:30N 68°52' E 016°24'0 0.0
2017-Apr-24 23:00N 68°52' E 016°24'1 2.7
2017-Apr-24 22:30N 68°53' E 016°22'2 5.0
2017-Apr-24 22:00N 68°55' E 016°17'0 0.0
2017-Apr-24 21:30N 68°55' E 016°17'0 0.0
2017-Apr-24 21:00N 68°55' E 016°17'2 4.4
2017-Apr-24 20:30N 68°56' E 016°14'510.2
2017-Apr-24 20:00N 68°58' E 016°00'510.1
2017-Apr-24 19:30N 68°59' E 015°46'5 9.2
2017-Apr-24 18:59N 68°56' E 015°36'510.4
2017-Apr-24 18:30N 68°51' E 015°30'510.3
2017-Apr-24 18:00N 68°46' E 015°26'510.2
2017-Apr-24 17:30N 68°41' E 015°26'4 7.0
2017-Apr-24 17:00N 68°38' E 015°29'0 0.0
2017-Apr-24 16:29N 68°38' E 015°29'2 5.1
2017-Apr-24 16:00N 68°37' E 015°23'0 0.7
2017-Apr-24 15:30N 68°37' E 015°23'4 8.9
2017-Apr-24 15:00N 68°35' E 015°12'4 9.0
2017-Apr-24 14:30N 68°30' E 015°12'1 0.9
2017-Apr-24 13:30N 68°30' E 015°14'0 0.1
2017-Apr-24 13:00N 68°30' E 015°14'4 8.4
2017-Apr-24 12:30N 68°32' E 015°06'4 7.6
2017-Apr-24 12:00N 68°35' E 014°57'0 0.3
2017-Apr-24 11:30N 68°34' E 014°57'0 0.0
2017-Apr-24 11:00N 68°34' E 014°57'0 0.0
2017-Apr-24 10:29N 68°34' E 014°57'0 0.0
2017-Apr-24 10:00N 68°34' E 014°57'0 0.0
2017-Apr-24 09:30N 68°34' E 014°57'0 0.0
2017-Apr-24 08:59N 68°34' E 014°57'0 0.0
2017-Apr-24 08:29N 68°34' E 014°57'0 0.0
2017-Apr-24 08:00N 68°34' E 014°57'0 0.0
2017-Apr-24 07:30N 68°34' E 014°57'0 0.0
2017-Apr-24 07:00N 68°34' E 014°57'0 0.0
2017-Apr-24 06:30N 68°34' E 014°57'0 0.0
2017-Apr-24 06:00N 68°34' E 014°57'0 0.0
2017-Apr-24 05:30N 68°34' E 014°57'0 0.0
2017-Apr-24 05:00N 68°34' E 014°57'0 0.0
2017-Apr-24 04:29N 68°34' E 014°57'0 0.0
2017-Apr-24 04:00N 68°34' E 014°57'0 0.0
2017-Apr-24 03:30N 68°34' E 014°57'0 0.0
2017-Apr-24 03:00N 68°34' E 014°57'0 0.0
2017-Apr-24 02:30N 68°34' E 014°57'0 0.0
2017-Apr-24 02:00N 68°34' E 014°57'0 0.0
2017-Apr-24 01:29N 68°34' E 014°57'0 0.0
2017-Apr-24 01:00N 68°34' E 014°57'0 0.0
2017-Apr-24 00:30N 68°34' E 014°57'0 0.0
2017-Apr-23 23:59N 68°34' E 014°57'0 0.0
2017-Apr-23 23:30N 68°34' E 014°57'0 0.0
2017-Apr-23 23:00N 68°34' E 014°57'0 0.0
2017-Apr-23 22:30N 68°34' E 014°57'0 0.0
2017-Apr-23 22:00N 68°34' E 014°57'0 0.0
2017-Apr-23 21:30N 68°34' E 014°57'0 0.0
2017-Apr-23 21:00N 68°34' E 014°57'0 0.0
2017-Apr-23 20:30N 68°34' E 014°57'0 0.0
2017-Apr-23 20:00N 68°34' E 014°57'0 0.0
2017-Apr-23 19:30N 68°34' E 014°57'0 0.0
2017-Apr-23 19:00N 68°34' E 014°57'0 0.0
2017-Apr-23 18:30N 68°34' E 014°57'0 0.0
2017-Apr-23 18:00N 68°34' E 014°57'0 0.0
2017-Apr-23 17:30N 68°34' E 014°57'0 0.0
2017-Apr-23 17:00N 68°34' E 014°57'0 0.0
2017-Apr-23 16:30N 68°34' E 014°57'0 0.0
2017-Apr-23 16:00N 68°34' E 014°57'0 0.0
2017-Apr-23 15:29N 68°34' E 014°57'0 0.0
2017-Apr-23 15:00N 68°34' E 014°57'0 0.0
2017-Apr-23 14:00N 68°34' E 014°57'0 0.0
2017-Apr-23 13:30N 68°34' E 014°57'0 0.0
2017-Apr-23 13:00N 68°34' E 014°57'0 0.0
2017-Apr-23 12:30N 68°34' E 014°57'0 0.0
2017-Apr-23 12:00N 68°34' E 014°57'0 0.0
2017-Apr-23 11:30N 68°34' E 014°57'0 0.0
2017-Apr-23 11:00N 68°34' E 014°57'0 0.0
2017-Apr-23 10:30N 68°34' E 014°57'0 0.0
2017-Apr-23 09:59N 68°34' E 014°57'0 0.0
2017-Apr-23 09:30N 68°34' E 014°57'0 0.0
2017-Apr-23 09:00N 68°34' E 014°57'0 0.0
2017-Apr-23 08:30N 68°34' E 014°57'0 0.0
2017-Apr-23 08:00N 68°34' E 014°57'0 0.0
2017-Apr-23 07:29N 68°34' E 014°57'0 0.0
2017-Apr-23 07:00N 68°34' E 014°57'0 0.0
2017-Apr-23 06:30N 68°34' E 014°57'0 0.0
2017-Apr-23 06:00N 68°34' E 014°57'0 0.0
2017-Apr-23 05:30N 68°34' E 014°57'0 0.0
2017-Apr-23 05:00N 68°34' E 014°57'0 0.0
2017-Apr-23 04:30N 68°34' E 014°57'0 0.0
2017-Apr-23 04:00N 68°34' E 014°57'0 0.0
2017-Apr-23 03:30N 68°34' E 014°57'0 0.0
2017-Apr-23 03:00N 68°34' E 014°57'0 0.0
2017-Apr-23 02:30N 68°34' E 014°57'0 0.0
2017-Apr-23 02:00N 68°34' E 014°57'0 0.0
2017-Apr-23 01:30N 68°34' E 014°57'0 0.0
2017-Apr-23 01:00N 68°34' E 014°57'0 0.0
2017-Apr-23 00:30N 68°34' E 014°57'0 0.0
2017-Apr-23 00:00N 68°34' E 014°57'0 0.0
2017-Apr-22 23:30N 68°34' E 014°57'0 0.0
2017-Apr-22 23:00N 68°34' E 014°57'0 0.0
2017-Apr-22 22:30N 68°34' E 014°57'0 0.0
2017-Apr-22 22:00N 68°34' E 014°57'0 0.0
2017-Apr-22 21:30N 68°34' E 014°57'0 0.0
2017-Apr-22 21:00N 68°34' E 014°57'0 0.0
2017-Apr-22 20:30N 68°34' E 014°57'0 0.0
2017-Apr-22 20:00N 68°34' E 014°57'0 0.0
2017-Apr-22 19:30N 68°34' E 014°57'0 0.0
2017-Apr-22 19:00N 68°34' E 014°57'3 6.4
2017-Apr-22 18:30N 68°35' E 015°06'510.8
2017-Apr-22 18:00N 68°38' E 015°18'510.2
2017-Apr-22 17:30N 68°42' E 015°26'510.6
2017-Apr-22 17:00N 68°47' E 015°25'510.7
2017-Apr-22 16:30N 68°52' E 015°31'510.6
2017-Apr-22 16:00N 68°57' E 015°37'510.0
2017-Apr-22 15:30N 68°59' E 015°50'511.0
2017-Apr-22 15:00N 68°59' E 016°05'510.9
2017-Apr-22 14:30N 68°60' E 016°20'1110.7
2017-Apr-22 13:30N 68°59' E 016°50'611.0
2017-Apr-22 13:00N 68°60' E 017°05'510.0
2017-Apr-22 12:30N 69°02' E 017°18'510.5
2017-Apr-22 12:00N 69°06' E 017°27'510.9
2017-Apr-22 11:30N 69°08' E 017°41'510.9
2017-Apr-22 11:00N 69°10' E 017°55'4 8.3
2017-Apr-22 10:30N 69°14' E 017°58'510.0
2017-Apr-22 10:00N 69°19' E 017°59'5 9.7
2017-Apr-22 09:30N 69°23' E 018°05'510.6
2017-Apr-22 09:00N 69°29' E 018°09'510.8
2017-Apr-22 08:30N 69°31' E 018°23'510.6
2017-Apr-22 08:00N 69°33' E 018°37'5 9.5
2017-Apr-22 07:30N 69°35' E 018°49'510.2
2017-Apr-22 07:00N 69°39' E 018°58'4 7.5
2017-Apr-22 06:30N 69°42' E 019°04'0 0.0
2017-Apr-22 06:00N 69°42' E 019°05'0 0.0
2017-Apr-22 05:30N 69°42' E 019°04'0 0.3
2017-Apr-22 05:00N 69°42' E 019°04'3 5.0
2017-Apr-22 04:30N 69°44' E 019°06'4 7.6
2017-Apr-22 04:00N 69°47' E 019°14'4 7.8
2017-Apr-22 03:30N 69°48' E 019°25'4 8.0
2017-Apr-22 03:00N 69°50' E 019°35'4 7.8
2017-Apr-22 02:30N 69°51' E 019°46'4 8.0
2017-Apr-22 02:00N 69°54' E 019°54'4 7.9
2017-Apr-22 01:30N 69°57' E 020°02'4 7.5
2017-Apr-22 01:00N 69°60' E 020°10'2 4.8
2017-Apr-22 00:30N 70°01' E 020°15'2 5.0
2017-Apr-22 00:00N 70°01' E 020°22'4 7.5
2017-Apr-21 23:30N 70°01' E 020°33'4 8.6
2017-Apr-21 23:00N 70°02' E 020°46'5 9.2
2017-Apr-21 22:30N 70°04' E 020°58'5 9.5
2017-Apr-21 22:00N 70°04' E 021°12'5 9.4
2017-Apr-21 21:30N 70°02' E 021°25'5 9.9
2017-Apr-21 21:00N 69°58' E 021°34'9 3.6
2017-Apr-21 18:32N 69°51' E 021°50'0 6.8
2017-Apr-21 18:30N 69°51' E 021°50'4 4.0
2017-Apr-21 17:36N 69°55' E 021°51'110.6
2017-Apr-21 17:30N 69°56' E 021°50'2 2.2
2017-Apr-21 16:45N 69°57' E 021°53'0 0.0
2017-Apr-21 16:29N 69°57' E 021°53'3 6.6
2017-Apr-21 16:00N 69°58' E 021°44'510.9
2017-Apr-21 15:30N 70°01' E 021°30'5 9.6
2017-Apr-21 14:59N 70°03' E 021°17'0 0.0
2017-Apr-21 14:30N 70°03' E 021°17'9 9.2
2017-Apr-21 13:29N 69°56' E 020°57'5 9.6
2017-Apr-21 13:00N 69°53' E 020°46'0 0.0
2017-Apr-21 12:30N 69°53' E 020°46'3 6.9
2017-Apr-21 12:00N 69°55' E 020°38'1 1.7
2017-Apr-21 11:30N 69°55' E 020°36'0 0.0
2017-Apr-21 11:00N 69°55' E 020°36'0 0.0
2017-Apr-21 10:30N 69°55' E 020°36'0 0.4
2017-Apr-21 10:00N 69°55' E 020°37'510.6
2017-Apr-21 09:30N 69°58' E 020°24'5 9.5
2017-Apr-21 09:00N 69°58' E 020°10'611.0
2017-Apr-21 08:30N 69°54' E 019°57'510.7
2017-Apr-21 08:00N 69°51' E 019°45'510.7
2017-Apr-21 07:30N 69°49' E 019°31'610.9
2017-Apr-21 07:00N 69°47' E 019°15'5 9.5
2017-Apr-21 06:30N 69°48' E 019°02'611.3
2017-Apr-21 06:00N 69°53' E 018°51'1 2.3
2017-Apr-21 05:29N 69°54' E 018°49'0 0.0
2017-Apr-21 05:00N 69°54' E 018°49'0 0.0
2017-Apr-21 04:30N 69°54' E 018°49'1 1.6
2017-Apr-21 04:00N 69°54' E 018°46'4 6.9
2017-Apr-21 03:30N 69°55' E 018°37'3 6.9
2017-Apr-21 03:00N 69°53' E 018°29'5 9.2
2017-Apr-21 02:30N 69°52' E 018°16'510.7
2017-Apr-21 02:00N 69°48' E 018°04'510.8
2017-Apr-21 01:29N 69°45' E 017°51'511.1
2017-Apr-21 01:00N 69°41' E 017°40'611.0
2017-Apr-21 00:30N 69°37' E 017°29'5 9.9
2017-Apr-20 23:59N 69°32' E 017°29'4 7.8
2017-Apr-20 23:30N 69°29' E 017°34'0 0.0
2017-Apr-20 22:57N 69°29' E 017°34'0 0.0
2017-Apr-20 22:30N 69°29' E 017°34'0 0.0
2017-Apr-20 22:00N 69°29' E 017°34'0 0.0
2017-Apr-20 21:30N 69°29' E 017°34'3 6.5
2017-Apr-20 21:00N 69°31' E 017°29'5 9.9
2017-Apr-20 20:30N 69°33' E 017°16'510.0
2017-Apr-20 20:00N 69°32' E 017°02'510.4
2017-Apr-20 19:30N 69°29' E 016°50'611.1
2017-Apr-20 19:00N 69°24' E 016°41'510.2
2017-Apr-20 18:30N 69°20' E 016°34'5 9.9
2017-Apr-20 18:00N 69°15' E 016°26'510.2
2017-Apr-20 17:30N 69°11' E 016°19'510.6
2017-Apr-20 17:00N 69°07' E 016°10'510.6
2017-Apr-20 16:30N 69°03' E 016°00'611.0
2017-Apr-20 16:00N 68°59' E 015°49'5 9.6
2017-Apr-20 15:30N 68°57' E 015°37'5 9.6
2017-Apr-20 15:00N 68°53' E 015°32'510.8
2017-Apr-20 14:30N 68°48' E 015°26'1110.5
2017-Apr-20 13:30N 68°38' E 015°17'510.6
2017-Apr-20 12:59N 68°35' E 015°05'3 5.6
2017-Apr-20 12:30N 68°34' E 014°57'0 0.0
2017-Apr-20 12:00N 68°34' E 014°57'0 0.0
2017-Apr-20 11:30N 68°34' E 014°57'0 0.0
2017-Apr-20 11:00N 68°34' E 014°57'0 0.0
2017-Apr-20 10:30N 68°34' E 014°57'0 0.0
2017-Apr-20 10:00N 68°34' E 014°57'0 0.0
2017-Apr-20 09:30N 68°34' E 014°57'0 0.0
2017-Apr-20 09:00N 68°34' E 014°57'0 0.0
2017-Apr-20 08:30N 68°34' E 014°57'0 0.0
2017-Apr-20 08:00N 68°34' E 014°57'0 0.0
2017-Apr-20 07:30N 68°34' E 014°57'0 0.0
2017-Apr-20 07:00N 68°34' E 014°57'0 0.0
2017-Apr-20 06:30N 68°34' E 014°57'0 0.0
2017-Apr-20 06:00N 68°34' E 014°57'0 0.0
2017-Apr-20 05:30N 68°34' E 014°57'0 0.0
2017-Apr-20 05:00N 68°34' E 014°57'0 0.0
2017-Apr-20 04:30N 68°34' E 014°57'0 0.0
2017-Apr-20 03:59N 68°34' E 014°57'0 0.0
2017-Apr-20 03:30N 68°34' E 014°57'0 0.0
2017-Apr-20 03:00N 68°34' E 014°57'0 0.0
2017-Apr-20 02:30N 68°34' E 014°57'0 0.0
2017-Apr-20 02:00N 68°34' E 014°57'0 0.0
2017-Apr-20 01:30N 68°34' E 014°57'0 0.0
2017-Apr-20 01:00N 68°34' E 014°57'0 0.0
2017-Apr-20 00:30N 68°34' E 014°57'0 0.0
2017-Apr-20 00:00N 68°34' E 014°57'0 0.0
2017-Apr-19 23:30N 68°34' E 014°57'0 0.0
2017-Apr-19 23:00N 68°34' E 014°57'0 0.0
2017-Apr-19 22:30N 68°34' E 014°57'0 0.0
2017-Apr-19 22:00N 68°34' E 014°57'0 0.0
2017-Apr-19 21:30N 68°34' E 014°57'0 0.0
2017-Apr-19 21:01N 68°34' E 014°57'0 0.0
2017-Apr-19 20:30N 68°34' E 014°57'0 0.0
2017-Apr-19 20:00N 68°34' E 014°57'0 0.0
2017-Apr-19 19:30N 68°34' E 014°57'0 0.0
2017-Apr-19 19:00N 68°34' E 014°57'0 0.0
2017-Apr-19 18:30N 68°34' E 014°57'0 0.0
2017-Apr-19 18:00N 68°34' E 014°57'0 0.0
2017-Apr-19 17:30N 68°34' E 014°57'0 0.0
2017-Apr-19 17:00N 68°34' E 014°57'0 0.0
2017-Apr-19 16:29N 68°34' E 014°57'0 0.0
2017-Apr-19 16:00N 68°34' E 014°57'0 0.0
2017-Apr-19 15:29N 68°34' E 014°57'0 0.0
2017-Apr-19 15:00N 68°34' E 014°57'0 0.0
2017-Apr-19 14:30N 68°34' E 014°57'0 0.0
2017-Apr-19 13:30N 68°34' E 014°57'0 0.0
2017-Apr-19 13:00N 68°34' E 014°57'0 0.0
2017-Apr-19 12:30N 68°34' E 014°57'0 0.0
2017-Apr-19 12:00N 68°34' E 014°57'0 0.0
2017-Apr-19 11:30N 68°34' E 014°57'0 0.0
2017-Apr-19 11:00N 68°34' E 014°57'0 0.0
2017-Apr-19 10:30N 68°34' E 014°57'0 0.0
2017-Apr-19 10:00N 68°34' E 014°57'0 0.0
2017-Apr-19 09:30N 68°34' E 014°57'0 0.1
2017-Apr-19 09:00N 68°35' E 014°57'0 0.0
2017-Apr-19 08:30N 68°35' E 014°57'0 0.0
2017-Apr-19 07:59N 68°35' E 014°57'0 0.0
2017-Apr-19 07:30N 68°35' E 014°57'0 0.0
2017-Apr-19 07:00N 68°35' E 014°57'0 0.0
2017-Apr-19 06:30N 68°35' E 014°57'0 0.0
2017-Apr-19 06:00N 68°35' E 014°57'0 0.0
2017-Apr-19 05:31N 68°35' E 014°57'0 0.0
2017-Apr-19 05:00N 68°35' E 014°57'0 0.0
2017-Apr-19 04:30N 68°35' E 014°57'0 0.0
2017-Apr-19 04:00N 68°35' E 014°57'0 0.0
2017-Apr-19 03:30N 68°35' E 014°57'  

Dump ship's entire track history